Terminal Aerodrome Forecast
Issued by NWS

Home | Current Version | Previous Version | Text Only | Print | Product List | Glossary On
Versions: 1 2 3 4 5 6 7 8 9 10 11 12 13 14 15
000
FTUS41 KLWX 051128
TAFMTN
TAF
KMTN 051128Z 0512/0612 VRB04KT P6SM SCT070 BKN200
     FM051500 27008G16KT P6SM SCT050
     FM060000 30005KT P6SM FEW200
     FM061100 02007KT P6SM BKN100=

USA.gov is the U.S. government's official web portal to all federal, state and local government web resources and services.